Time;durP1;ratioP1;P1;durP2;ratioP2;P2;SDS_P1;SDS_P2;PMS_P1;PMS_P2;Temp;Humidity;BMP_temperature;BMP_pressure;BME280_temperature;BME280_humidity;BME280_pressure;Samples;Min_cycle;Max_cycle;Signal;HPM_P1;HPM_P2
2022/10/11 00:01:57;;;;;;;16.80;4.07;;;;;;;;;;5023549;28;20089;-81
2022/10/11 00:04:23;;;;;;;13.15;3.90;;;;;;;;;;5035023;28;20049;-82
2022/10/11 00:06:49;;;;;;;13.32;4.05;;;;;;;;;;5034334;28;20049;-82
2022/10/11 00:09:16;;;;;;;14.73;3.80;;;;;;;;;;5034864;28;20049;-81
2022/10/11 00:11:42;;;;;;;18.48;4.45;;;;;;;;;;5016397;28;20049;-82
2022/10/11 00:14:09;;;;;;;16.23;4.30;;;;;;;;;;5034349;28;20049;-82
2022/10/11 00:16:37;;;;;;;12.90;3.63;;;;;;;;;;5033691;28;20041;-81
2022/10/11 00:19:03;;;;;;;15.13;4.30;;;;;;;;;;5034602;28;20122;-80
2022/10/11 00:21:30;;;;;;;13.10;3.95;;;;;;;;;;5034414;28;20049;-79
2022/10/11 00:23:56;;;;;;;11.50;4.10;;;;;;;;;;5032742;28;20064;-81
2022/10/11 00:26:23;;;;;;;14.15;4.43;;;;;;;;;;5033723;28;20272;-79
2022/10/11 00:28:50;;;;;;;16.55;4.43;;;;;;;;;;5024009;28;20101;-82
2022/10/11 00:31:17;;;;;;;18.35;4.88;;;;;;;;;;5037162;28;20257;-83
2022/10/11 00:33:44;;;;;;;18.60;5.22;;;;;;;;;;5053058;28;20033;-83
2022/10/11 00:36:13;;;;;;;13.68;4.43;;;;;;;;;;5045047;28;20051;-81
2022/10/11 00:38:40;;;;;;;12.90;5.18;;;;;;;;;;5045952;28;20084;-83
2022/10/11 00:41:06;;;;;;;18.40;5.43;;;;;;;;;;5038730;28;20101;-82
2022/10/11 00:43:33;;;;;;;16.40;4.32;;;;;;;;;;5020193;28;20101;-82
2022/10/11 00:46:02;;;;;;;13.45;4.65;;;;;;;;;;5037715;28;20052;-81
2022/10/11 00:48:40;;;;;;;16.75;4.70;;;;;;;;;;5039521;28;20146;-81
2022/10/11 00:51:22;;;;;;;15.63;5.05;;;;;;;;;;5037803;28;20461;-82
2022/10/11 00:53:49;;;;;;;12.68;4.85;;;;;;;;;;5039041;28;20053;-82
2022/10/11 00:56:19;;;;;;;13.80;4.85;;;;;;;;;;5039500;28;20111;-82
2022/10/11 00:58:46;;;;;;;13.48;5.38;;;;;;;;;;5023322;28;20049;-83
2022/10/11 01:01:12;;;;;;;19.50;5.05;;;;;;;;;;5037779;28;20051;-83
2022/10/11 01:03:39;;;;;;;14.10;5.38;;;;;;;;;;5035823;28;20049;-81
2022/10/11 01:06:05;;;;;;;20.90;5.72;;;;;;;;;;5037418;28;20053;-82
2022/10/11 01:08:32;;;;;;;15.18;5.00;;;;;;;;;;5037723;28;20061;-83
2022/10/11 01:10:59;;;;;;;13.00;4.85;;;;;;;;;;5039686;28;20057;-83
2022/10/11 01:13:31;;;;;;;15.18;4.95;;;;;;;;;;5039231;28;20527;-83
2022/10/11 01:16:01;;;;;;;19.77;5.32;;;;;;;;;;5037567;28;20049;-83
2022/10/11 01:18:33;;;;;;;15.93;5.28;;;;;;;;;;5036677;28;20410;-82
2022/10/11 01:21:08;;;;;;;14.30;4.70;;;;;;;;;;5040463;28;20049;-81
2022/10/11 01:23:37;;;;;;;10.82;5.03;;;;;;;;;;5041340;28;20050;-83
2022/10/11 01:26:03;;;;;;;15.75;5.07;;;;;;;;;;5034259;28;20435;-83
2022/10/11 01:28:31;;;;;;;20.10;5.57;;;;;;;;;;5029882;28;20041;-80
2022/10/11 01:31:03;;;;;;;16.30;5.32;;;;;;;;;;5030756;28;20347;-81
2022/10/11 01:33:34;;;;;;;17.83;5.63;;;;;;;;;;5030937;28;20049;-82
2022/10/11 01:36:00;;;;;;;17.75;5.82;;;;;;;;;;5031527;28;20055;-81
2022/10/11 01:38:34;;;;;;;14.90;6.20;;;;;;;;;;5030772;28;20049;-81
2022/10/11 01:41:14;;;;;;;21.33;6.53;;;;;;;;;;5014358;28;20059;-81
2022/10/11 01:43:41;;;;;;;18.83;7.25;;;;;;;;;;5042808;28;20053;-80
2022/10/11 01:46:08;;;;;;;22.80;7.85;;;;;;;;;;5052310;28;20037;-80
2022/10/11 01:48:45;;;;;;;17.45;7.30;;;;;;;;;;5033885;28;20214;-81
2022/10/11 01:51:12;;;;;;;18.27;7.68;;;;;;;;;;5035451;28;20033;-81
2022/10/11 01:53:53;;;;;;;17.20;7.40;;;;;;;;;;5040638;28;20049;-79
2022/10/11 01:56:29;;;;;;;17.90;8.13;;;;;;;;;;5031643;28;20049;-80
2022/10/11 01:58:55;;;;;;;;;;;;;;;;;;5032547;28;20065;-82
2022/10/11 02:01:22;;;;;;;;;;;;;;;;;;5032618;28;20294;-79
2022/10/11 02:03:48;;;;;;;;;;;;;;;;;;5015578;28;19921;-82
2022/10/11 02:06:14;;;;;;;;;;;;;;;;;;5032386;28;19921;-79
2022/10/11 02:08:56;;;;;;;17.10;7.78;;;;;;;;;;5031207;28;20380;-79
2022/10/11 02:11:27;;;;;;;18.17;8.38;;;;;;;;;;5030496;28;20045;-80
2022/10/11 02:14:11;;;;;;;20.50;8.45;;;;;;;;;;5030966;28;20583;-80
2022/10/11 02:16:43;;;;;;;20.63;8.57;;;;;;;;;;5030894;28;20057;-81
2022/10/11 02:19:11;;;;;;;19.67;8.32;;;;;;;;;;5031069;28;20059;-81
2022/10/11 02:21:39;;;;;;;22.63;9.05;;;;;;;;;;5029545;28;20050;-80
2022/10/11 02:24:08;;;;;;;15.35;8.25;;;;;;;;;;5014908;28;20068;-82
2022/10/11 02:26:35;;;;;;;20.55;8.73;;;;;;;;;;5032149;28;20418;-81
2022/10/11 02:29:03;;;;;;;23.85;8.48;;;;;;;;;;5031778;28;20390;-82
2022/10/11 02:31:32;;;;;;;23.90;9.07;;;;;;;;;;5014880;28;20084;-80
2022/10/11 02:34:07;;;;;;;17.30;8.48;;;;;;;;;;5032167;28;20045;-82
2022/10/11 02:36:34;;;;;;;;;;;;;;;;;;5031326;28;20045;-81
2022/10/11 02:39:00;;;;;;;;;;;;;;;;;;5017976;28;19921;-80
2022/10/11 02:41:26;;;;;;;;;;;;;;;;;;5013049;28;19922;-79
2022/10/11 02:43:53;;;;;;;;;;;;;;;;;;5012336;28;20521;-80
2022/10/11 02:46:20;;;;;;;16.00;8.02;;;;;;;;;;5012478;28;19944;-81
2022/10/11 02:48:46;;;;;;;18.83;8.18;;;;;;;;;;5011006;28;20413;-79
2022/10/11 02:51:13;;;;;;;21.50;8.77;;;;;;;;;;5012412;28;20056;-81
2022/10/11 02:53:40;;;;;;;14.23;7.80;;;;;;;;;;4979245;28;20065;-81
2022/10/11 02:56:06;;;;;;;22.45;7.88;;;;;;;;;;5012680;28;20046;-81
2022/10/11 02:58:33;;;;;;;20.17;7.60;;;;;;;;;;5019335;28;20054;-81
2022/10/11 03:00:59;;;;;;;19.77;7.85;;;;;;;;;;5033061;28;20062;-80
2022/10/11 03:03:26;;;;;;;16.38;8.05;;;;;;;;;;5032232;28;20045;-80
2022/10/11 03:05:56;;;;;;;20.52;8.00;;;;;;;;;;5032028;28;20056;-81
2022/10/11 03:08:23;;;;;;;22.13;8.32;;;;;;;;;;5033181;28;20132;-81
2022/10/11 03:10:49;;;;;;;24.08;8.38;;;;;;;;;;5033357;28;20081;-80
2022/10/11 03:13:16;;;;;;;23.35;8.65;;;;;;;;;;5035910;28;20695;-79
2022/10/11 03:15:47;;;;;;;19.58;8.20;;;;;;;;;;5035925;28;20138;-83
2022/10/11 03:18:14;;;;;;;13.70;7.45;;;;;;;;;;5037198;28;20046;-79
2022/10/11 03:20:41;;;;;;;21.42;6.88;;;;;;;;;;5037708;28;20049;-81
2022/10/11 03:23:07;;;;;;;23.00;7.63;;;;;;;;;;5037926;28;20050;-83
2022/10/11 03:25:33;;;;;;;19.77;6.97;;;;;;;;;;5040773;28;20045;-82
2022/10/11 03:28:00;;;;;;;22.50;7.15;;;;;;;;;;5043446;28;20137;-83
2022/10/11 03:30:26;;;;;;;18.98;5.75;;;;;;;;;;5044914;28;20049;-79
2022/10/11 03:32:53;;;;;;;22.25;5.47;;;;;;;;;;5026055;28;20117;-80
2022/10/11 03:35:19;;;;;;;20.65;4.65;;;;;;;;;;5044815;28;20107;-81
2022/10/11 03:37:46;;;;;;;18.08;4.70;;;;;;;;;;5047468;28;20045;-79
2022/10/11 03:40:12;;;;;;;21.85;4.72;;;;;;;;;;5040601;28;20129;-81
2022/10/11 03:42:39;;;;;;;17.27;3.78;;;;;;;;;;5007360;28;20049;-82
2022/10/11 03:45:07;;;;;;;11.77;3.95;;;;;;;;;;5017709;28;20057;-83
2022/10/11 03:47:34;;;;;;;18.85;3.65;;;;;;;;;;5015189;28;20056;-82
2022/10/11 03:50:00;;;;;;;18.55;3.90;;;;;;;;;;5015896;28;20058;-81
2022/10/11 03:52:27;;;;;;;16.88;3.42;;;;;;;;;;5013991;28;20050;-80
2022/10/11 03:54:53;;;;;;;14.70;3.58;;;;;;;;;;5017666;28;20050;-80
2022/10/11 03:57:20;;;;;;;15.93;2.85;;;;;;;;;;5045518;28;20060;-81
2022/10/11 03:59:47;;;;;;;18.65;2.72;;;;;;;;;;5053216;28;20033;-81
2022/10/11 04:02:13;;;;;;;17.70;3.20;;;;;;;;;;5049386;28;20055;-81
2022/10/11 04:04:40;;;;;;;11.88;2.25;;;;;;;;;;5017790;28;20049;-79
2022/10/11 04:07:06;;;;;;;12.20;2.45;;;;;;;;;;5024514;28;20067;-81
2022/10/11 04:09:33;;;;;;;12.75;2.42;;;;;;;;;;5018019;28;20080;-82
2022/10/11 04:11:59;;;;;;;10.70;2.47;;;;;;;;;;5018180;28;20324;-82
2022/10/11 04:14:26;;;;;;;14.00;2.75;;;;;;;;;;5018436;28;20467;-80
2022/10/11 04:16:52;;;;;;;14.27;2.80;;;;;;;;;;5017086;28;20050;-82
2022/10/11 04:19:23;;;;;;;13.40;2.70;;;;;;;;;;5015248;28;20463;-82
2022/10/11 04:21:49;;;;;;;13.07;2.65;;;;;;;;;;5016567;28;20046;-81
2022/10/11 04:24:16;;;;;;;13.38;3.00;;;;;;;;;;5017067;28;20058;-81
2022/10/11 04:26:42;;;;;;;14.15;3.28;;;;;;;;;;5015952;28;20077;-80
2022/10/11 04:29:08;;;;;;;16.98;3.35;;;;;;;;;;5027882;28;20045;-81
2022/10/11 04:31:35;;;;;;;16.33;2.83;;;;;;;;;;5032953;28;20052;-82
2022/10/11 04:34:01;;;;;;;20.58;2.85;;;;;;;;;;5030991;28;20060;-82
2022/10/11 04:36:29;;;;;;;13.63;2.85;;;;;;;;;;5031943;28;20046;-81
2022/10/11 04:38:55;;;;;;;19.10;3.38;;;;;;;;;;5014016;28;20049;-79
2022/10/11 04:41:23;;;;;;;20.00;3.20;;;;;;;;;;5031178;28;20050;-79
2022/10/11 04:43:49;;;;;;;14.20;2.80;;;;;;;;;;5036836;28;20041;-82
2022/10/11 04:46:16;;;;;;;11.13;2.50;;;;;;;;;;5030768;28;20051;-81
2022/10/11 04:48:42;;;;;;;17.83;2.50;;;;;;;;;;5022307;28;20058;-81
2022/10/11 04:51:08;;;;;;;17.52;3.00;;;;;;;;;;5024879;28;20042;-80
2022/10/11 04:53:35;;;;;;;15.05;2.70;;;;;;;;;;5026821;28;20053;-82
2022/10/11 04:56:03;;;;;;;12.18;2.88;;;;;;;;;;5026515;28;20050;-82
2022/10/11 04:58:31;;;;;;;22.38;2.72;;;;;;;;;;5025652;28;20073;-81
2022/10/11 05:00:58;;;;;;;19.67;2.95;;;;;;;;;;5026019;28;20495;-81
2022/10/11 05:03:25;;;;;;;15.40;2.97;;;;;;;;;;5022468;28;20046;-82
2022/10/11 05:05:51;;;;;;;24.77;3.35;;;;;;;;;;4999576;28;20046;-80
2022/10/11 05:08:18;;;;;;;16.52;3.00;;;;;;;;;;5016439;28;20046;-81
2022/10/11 05:10:54;;;;;;;17.13;2.70;;;;;;;;;;5015707;28;20052;-81
2022/10/11 05:13:20;;;;;;;20.38;2.88;;;;;;;;;;5014718;28;20320;-80
2022/10/11 05:15:47;;;;;;;13.35;2.67;;;;;;;;;;5013445;28;20051;-81
2022/10/11 05:18:14;;;;;;;22.13;3.00;;;;;;;;;;5012825;28;20050;-82
2022/10/11 05:20:40;;;;;;;21.75;3.65;;;;;;;;;;5013180;28;20050;-81
2022/10/11 05:23:07;;;;;;;20.40;3.03;;;;;;;;;;5015621;28;20042;-82
2022/10/11 05:25:35;;;;;;;18.88;2.60;;;;;;;;;;4998369;28;20230;-79
2022/10/11 05:28:01;;;;;;;17.65;2.47;;;;;;;;;;5018700;28;20276;-81
2022/10/11 05:30:28;;;;;;;17.73;2.20;;;;;;;;;;5018821;28;20079;-81
2022/10/11 05:32:54;;;;;;;19.95;3.58;;;;;;;;;;5037015;28;20049;-81
2022/10/11 05:35:21;;;;;;;22.85;2.60;;;;;;;;;;5036601;28;20083;-80
2022/10/11 05:37:47;;;;;;;17.35;2.60;;;;;;;;;;5036387;28;20122;-81
2022/10/11 05:40:14;;;;;;;22.92;2.75;;;;;;;;;;5036676;28;20477;-81
2022/10/11 05:42:40;;;;;;;21.65;2.53;;;;;;;;;;5035650;28;20469;-82
2022/10/11 05:45:06;;;;;;;18.08;2.75;;;;;;;;;;5035959;28;20320;-80
2022/10/11 05:47:33;;;;;;;20.92;3.22;;;;;;;;;;5037345;28;20053;-81
2022/10/11 05:49:59;;;;;;;21.60;2.80;;;;;;;;;;5037328;28;20144;-83
2022/10/11 05:52:26;;;;;;;16.25;2.78;;;;;;;;;;5037689;28;20118;-83
2022/10/11 05:54:52;;;;;;;22.30;3.08;;;;;;;;;;5038183;28;20053;-82
2022/10/11 05:57:18;;;;;;;20.77;2.58;;;;;;;;;;5038932;28;20055;-83
2022/10/11 05:59:45;;;;;;;20.27;3.00;;;;;;;;;;5045463;28;20057;-81
2022/10/11 06:02:11;;;;;;;31.38;3.35;;;;;;;;;;5049038;28;20045;-82
2022/10/11 06:04:38;;;;;;;16.42;3.13;;;;;;;;;;5046127;28;20101;-81
2022/10/11 06:07:05;;;;;;;20.63;3.20;;;;;;;;;;5038221;28;20064;-81
2022/10/11 06:09:33;;;;;;;24.38;3.50;;;;;;;;;;5036081;28;20063;-81
2022/10/11 06:12:00;;;;;;;16.23;3.00;;;;;;;;;;5038222;28;20061;-81
2022/10/11 06:14:26;;;;;;;15.77;3.30;;;;;;;;;;5037530;28;20056;-81
2022/10/11 06:16:53;;;;;;;19.60;3.30;;;;;;;;;;5035896;28;20052;-82
2022/10/11 06:19:19;;;;;;;16.85;3.30;;;;;;;;;;5035524;28;20045;-80
2022/10/11 06:21:45;;;;;;;24.17;3.22;;;;;;;;;;5035908;28;20080;-81
2022/10/11 06:24:12;;;;;;;14.85;3.60;;;;;;;;;;5036607;28;20045;-81
2022/10/11 06:26:38;;;;;;;19.13;3.97;;;;;;;;;;5034989;28;20601;-81
2022/10/11 06:29:05;;;;;;;14.23;3.55;;;;;;;;;;5034426;28;20413;-82
2022/10/11 06:31:31;;;;;;;20.42;4.00;;;;;;;;;;5034795;28;20053;-81
2022/10/11 06:33:58;;;;;;;21.38;3.78;;;;;;;;;;5034795;28;20516;-82
2022/10/11 06:36:24;;;;;;;16.52;3.63;;;;;;;;;;5035230;28;20042;-81
2022/10/11 06:38:51;;;;;;;25.35;3.97;;;;;;;;;;5016157;28;20060;-81
2022/10/11 06:41:19;;;;;;;15.07;3.95;;;;;;;;;;5016683;28;20075;-82
2022/10/11 06:43:45;;;;;;;21.88;4.10;;;;;;;;;;5016909;28;20049;-82
2022/10/11 06:46:12;;;;;;;14.18;4.18;;;;;;;;;;5034459;28;20129;-82
2022/10/11 06:48:39;;;;;;;20.73;4.28;;;;;;;;;;5016794;28;20046;-81
2022/10/11 06:51:05;;;;;;;22.10;4.40;;;;;;;;;;5034878;28;20045;-82
2022/10/11 06:53:31;;;;;;;22.02;4.22;;;;;;;;;;5035941;28;20060;-81
2022/10/11 06:56:04;;;;;;;20.38;4.75;;;;;;;;;;5035764;28;20064;-82
2022/10/11 06:58:31;;;;;;;31.63;5.57;;;;;;;;;;5034439;28;20557;-81
2022/10/11 07:00:58;;;;;;;24.25;4.63;;;;;;;;;;5025244;28;20053;-82
2022/10/11 07:03:25;;;;;;;23.85;4.53;;;;;;;;;;5020541;28;20049;-82
2022/10/11 07:05:51;;;;;;;23.17;4.55;;;;;;;;;;5039278;28;20459;-82
2022/10/11 07:08:17;;;;;;;18.73;4.32;;;;;;;;;;5041132;28;20060;-81
2022/10/11 07:10:44;;;;;;;21.23;4.60;;;;;;;;;;5045334;28;20041;-82
2022/10/11 07:13:10;;;;;;;16.88;3.80;;;;;;;;;;5056474;28;20101;-81
2022/10/11 07:15:42;;;;;;;15.30;4.00;;;;;;;;;;5046806;28;20126;-81
2022/10/11 07:18:08;;;;;;;23.02;4.50;;;;;;;;;;5049323;28;20050;-81
2022/10/11 07:20:34;;;;;;;24.65;4.15;;;;;;;;;;5045022;28;20045;-79
2022/10/11 07:23:01;;;;;;;18.70;4.57;;;;;;;;;;5035900;28;20051;-81
2022/10/11 07:25:27;;;;;;;22.70;3.70;;;;;;;;;;5053982;28;20097;-82
2022/10/11 07:27:53;;;;;;;25.80;4.00;;;;;;;;;;5056108;28;20097;-81
2022/10/11 07:30:20;;;;;;;18.33;3.72;;;;;;;;;;5048239;28;20045;-81
2022/10/11 07:32:46;;;;;;;21.85;3.45;;;;;;;;;;5039498;28;20478;-82
2022/10/11 07:35:13;;;;;;;24.65;3.70;;;;;;;;;;5020371;28;20153;-82
2022/10/11 07:37:39;;;;;;;15.10;3.08;;;;;;;;;;5039588;28;20049;-82
2022/10/11 07:40:09;;;;;;;22.30;3.83;;;;;;;;;;5040212;28;20067;-81
2022/10/11 07:42:36;;;;;;;21.77;3.47;;;;;;;;;;5039955;28;20148;-82
2022/10/11 07:45:02;;;;;;;20.10;2.83;;;;;;;;;;5039196;28;20482;-81
2022/10/11 07:47:29;;;;;;;18.40;2.60;;;;;;;;;;5038833;28;20045;-83
2022/10/11 07:49:55;;;;;;;20.13;2.70;;;;;;;;;;5040965;28;20049;-81
2022/10/11 07:52:21;;;;;;;22.83;3.60;;;;;;;;;;5049874;28;20077;-82
2022/10/11 07:54:48;;;;;;;20.75;3.28;;;;;;;;;;5054317;28;20045;-81
2022/10/11 07:57:15;;;;;;;14.75;2.75;;;;;;;;;;5039290;28;20429;-81
2022/10/11 07:59:42;;;;;;;23.83;2.92;;;;;;;;;;5037965;28;20045;-82
2022/10/11 08:02:15;;;;;;;20.52;3.03;;;;;;;;;;5034670;28;20517;-81
2022/10/11 08:04:41;;;;;;;23.95;3.15;;;;;;;;;;5037585;28;20055;-82
2022/10/11 08:07:07;;;;;;;15.20;2.70;;;;;;;;;;5037482;28;20060;-82
2022/10/11 08:09:34;;;;;;;22.98;2.95;;;;;;;;;;5040177;28;20124;-80
2022/10/11 08:12:00;;;;;;;12.05;2.50;;;;;;;;;;5039158;28;20046;-82
2022/10/11 08:14:27;;;;;;;15.70;2.38;;;;;;;;;;5032692;28;20410;-80
2022/10/11 08:16:53;;;;;;;16.50;2.10;;;;;;;;;;5032265;28;20049;-81
2022/10/11 08:19:19;;;;;;;12.25;2.53;;;;;;;;;;5030903;28;20199;-81
2022/10/11 08:21:46;;;;;;;20.05;2.38;;;;;;;;;;5031865;28;20521;-81
2022/10/11 08:24:12;;;;;;;19.80;2.80;;;;;;;;;;5032591;28;20103;-82
2022/10/11 08:26:39;;;;;;;15.27;2.58;;;;;;;;;;5032771;28;20049;-81
2022/10/11 08:29:06;;;;;;;17.15;2.42;;;;;;;;;;5036597;28;20049;-80
2022/10/11 08:31:33;;;;;;;19.80;2.83;;;;;;;;;;5030217;28;20045;-81
2022/10/11 08:33:59;;;;;;;21.27;2.65;;;;;;;;;;5031303;28;20050;-82
2022/10/11 08:36:25;;;;;;;19.50;2.47;;;;;;;;;;5016214;28;20045;-83
2022/10/11 08:38:52;;;;;;;18.98;2.92;;;;;;;;;;5037036;28;20041;-81
2022/10/11 08:41:24;;;;;;;17.83;2.80;;;;;;;;;;5036147;28;20069;-82
2022/10/11 08:44:01;;;;;;;24.23;3.25;;;;;;;;;;5036482;28;20104;-79
2022/10/11 08:46:29;;;;;;;25.58;3.15;;;;;;;;;;5032308;28;20045;-81
2022/10/11 08:48:56;;;;;;;16.52;2.28;;;;;;;;;;5031249;28;20060;-83
2022/10/11 08:51:44;;;;;;;15.55;2.20;;;;;;;;;;5033630;28;20080;-82
2022/10/11 08:54:14;;;;;;;17.98;2.00;;;;;;;;;;5047459;28;20065;-81
2022/10/11 08:56:42;;;;;;;15.77;2.45;;;;;;;;;;5048899;28;20104;-81
2022/10/11 08:59:11;;;;;;;21.50;2.45;;;;;;;;;;5042604;28;20506;-82
2022/10/11 09:01:41;;;;;;;20.85;2.58;;;;;;;;;;5042769;28;20056;-81
2022/10/11 09:04:13;;;;;;;16.98;2.30;;;;;;;;;;5042865;28;20045;-80
2022/10/11 09:06:39;;;;;;;15.88;2.25;;;;;;;;;;5040625;28;20052;-81
2022/10/11 09:09:12;;;;;;;17.50;2.20;;;;;;;;;;5040861;28;20055;-80
2022/10/11 09:11:46;;;;;;;20.80;2.47;;;;;;;;;;5041039;28;20049;-82
2022/10/11 09:14:31;;;;;;;16.50;2.53;;;;;;;;;;5041394;28;20101;-81
2022/10/11 09:16:57;;;;;;;18.90;2.30;;;;;;;;;;5037421;28;20163;-81
2022/10/11 09:19:42;;;;;;;20.55;2.08;;;;;;;;;;5033916;28;20045;-81
2022/10/11 09:22:12;;;;;;;12.03;1.93;;;;;;;;;;5033156;28;20046;-82
2022/10/11 09:24:44;;;;;;;21.67;2.45;;;;;;;;;;5033826;28;20080;-82
2022/10/11 09:27:18;;;;;;;14.65;1.90;;;;;;;;;;5032346;28;20136;-81
2022/10/11 09:29:47;;;;;;;12.48;1.90;;;;;;;;;;5034964;28;20054;-82
2022/10/11 09:32:15;;;;;;;8.90;1.10;;;;;;;;;;5036036;28;20059;-81
2022/10/11 09:34:42;;;;;;;11.50;2.00;;;;;;;;;;5018705;28;20053;-82
2022/10/11 09:37:21;;;;;;;16.73;1.80;;;;;;;;;;5036241;28;20137;-81
2022/10/11 09:40:17;;;;;;;12.35;2.05;;;;;;;;;;5033628;28;20042;-81
2022/10/11 09:42:44;;;;;;;;;;;;;;;;;;5032760;28;20604;-80
2022/10/11 09:45:16;;;;;;;14.57;2.28;;;;;;;;;;5033705;28;20089;-80
2022/10/11 09:47:43;;;;;;;12.20;1.95;;;;;;;;;;5015919;28;20112;-80
2022/10/11 09:50:17;;;;;;;12.07;1.83;;;;;;;;;;5033507;28;20486;-83
2022/10/11 09:52:51;;;;;;;14.43;1.92;;;;;;;;;;5017635;28;20085;-80
2022/10/11 09:55:30;;;;;;;16.30;2.13;;;;;;;;;;5034800;28;20115;-81
2022/10/11 09:57:56;;;;;;;12.68;1.70;;;;;;;;;;5017349;28;20050;-82
2022/10/11 10:00:24;;;;;;;12.13;2.35;;;;;;;;;;5034168;28;21151;-82
2022/10/11 10:02:51;;;;;;;11.02;1.83;;;;;;;;;;5033473;28;20056;-83
2022/10/11 10:05:18;;;;;;;11.05;1.60;;;;;;;;;;5034057;28;20353;-83
2022/10/11 10:08:03;;;;;;;10.15;1.50;;;;;;;;;;5035199;28;20057;-81
2022/10/11 10:10:33;;;;;;;11.27;1.63;;;;;;;;;;5034458;28;20076;-80
2022/10/11 10:13:01;;;;;;;10.38;1.80;;;;;;;;;;5035662;28;20052;-81
2022/10/11 10:15:29;;;;;;;8.35;2.00;;;;;;;;;;5036636;28;20075;-82
2022/10/11 10:17:55;;;;;;;11.98;1.70;;;;;;;;;;5036785;28;20053;-81
2022/10/11 10:20:23;;;;;;;11.18;2.00;;;;;;;;;;5037511;28;20162;-82
2022/10/11 10:22:50;;;;;;;10.00;1.98;;;;;;;;;;5053102;28;20073;-82
2022/10/11 10:25:36;;;;;;;9.55;1.88;;;;;;;;;;5044765;28;20052;-81
2022/10/11 10:28:22;;;;;;;14.25;2.00;;;;;;;;;;5030716;28;20049;-82
2022/10/11 10:30:53;;;;;;;13.70;1.40;;;;;;;;;;5033555;28;20132;-82
2022/10/11 10:33:20;;;;;;;9.63;1.50;;;;;;;;;;5033627;28;20053;-81
2022/10/11 10:35:52;;;;;;;8.70;1.50;;;;;;;;;;5033265;28;20118;-82
2022/10/11 10:38:31;;;;;;;10.95;1.70;;;;;;;;;;5037200;28;20053;-83
2022/10/11 10:41:00;;;;;;;9.95;1.63;;;;;;;;;;5042143;28;20056;-83
2022/10/11 10:43:28;;;;;;;6.82;1.40;;;;;;;;;;5041445;28;20060;-83
2022/10/11 10:46:02;;;;;;;14.88;2.10;;;;;;;;;;5041820;28;20059;-83
2022/10/11 10:48:38;;;;;;;10.60;1.85;;;;;;;;;;5033931;28;20403;-79
2022/10/11 10:51:28;;;;;;;13.30;2.10;;;;;;;;;;5043634;28;20037;-83
2022/10/11 10:54:15;;;;;;;10.75;1.67;;;;;;;;;;5057461;28;20037;-81
2022/10/11 10:57:13;;;;;;;13.02;2.38;;;;;;;;;;5051069;28;20071;-81
2022/10/11 10:59:58;;;;;;;8.35;1.67;;;;;;;;;;4991623;28;20046;-82
2022/10/11 11:02:34;;;;;;;6.15;1.52;;;;;;;;;;5038055;28;20371;-80
2022/10/11 11:05:06;;;;;;;10.60;1.73;;;;;;;;;;5036600;28;20088;-81
2022/10/11 11:07:38;;;;;;;11.80;1.65;;;;;;;;;;5037646;28;20050;-81
2022/10/11 11:10:09;;;;;;;10.48;1.83;;;;;;;;;;5038004;28;20457;-81
2022/10/11 11:12:48;;;;;;;8.95;1.88;;;;;;;;;;5039214;28;20045;-81
2022/10/11 11:15:19;;;;;;;11.35;1.88;;;;;;;;;;5039175;28;20486;-80
2022/10/11 11:18:00;;;;;;;7.78;1.65;;;;;;;;;;5051877;28;20048;-80
2022/10/11 11:20:40;;;;;;;9.82;1.70;;;;;;;;;;5053654;28;20140;-80
2022/10/11 11:23:26;;;;;;;9.50;1.80;;;;;;;;;;5041399;28;20046;-80
2022/10/11 11:25:55;;;;;;;10.77;1.50;;;;;;;;;;5036572;28;20458;-81
2022/10/11 11:28:24;;;;;;;8.80;1.50;;;;;;;;;;5036110;28;20544;-80
2022/10/11 11:30:51;;;;;;;7.75;1.38;;;;;;;;;;5040513;28;20053;-80
2022/10/11 11:33:29;;;;;;;9.90;1.48;;;;;;;;;;5039847;28;20049;-81
2022/10/11 11:35:57;;;;;;;10.18;1.80;;;;;;;;;;5037815;28;20058;-82
2022/10/11 11:38:27;;;;;;;9.30;1.50;;;;;;;;;;5039225;28;20045;-81
2022/10/11 11:41:01;;;;;;;12.57;2.10;;;;;;;;;;5041829;28;20041;-80
2022/10/11 11:44:03;;;;;;;7.97;1.85;;;;;;;;;;5040332;28;20156;-80
2022/10/11 11:46:32;;;;;;;9.75;1.90;;;;;;;;;;4957561;29;20154;-78
2022/10/11 11:49:01;;;;;;;8.02;1.60;;;;;;;;;;5023568;28;20084;-81
2022/10/11 11:51:37;;;;;;;8.38;1.70;;;;;;;;;;5039049;28;20084;-80
2022/10/11 11:54:18;;;;;;;11.48;1.80;;;;;;;;;;5042272;28;20049;-80
2022/10/11 11:57:03;;;;;;;10.40;1.48;;;;;;;;;;5026744;28;20049;-80
2022/10/11 11:59:45;;;;;;;10.97;1.50;;;;;;;;;;5042562;28;20432;-80
2022/10/11 12:02:30;;;;;;;8.90;1.45;;;;;;;;;;5045102;28;20280;-81
2022/10/11 12:04:57;;;;;;;14.70;1.97;;;;;;;;;;5042654;28;20101;-80
2022/10/11 12:07:25;;;;;;;10.90;2.15;;;;;;;;;;5044051;28;20416;-81
2022/10/11 12:09:53;;;;;;;12.73;1.67;;;;;;;;;;5043988;28;20088;-80
2022/10/11 12:12:29;;;;;;;11.52;1.98;;;;;;;;;;5044336;28;20045;-82
2022/10/11 12:14:55;;;;;;;;;;;;;;;;;;5045010;28;20041;-80
2022/10/11 12:17:22;;;;;;;;;;;;;;;;;;5045695;28;20006;-80
2022/10/11 12:19:48;;;;;;;;;;;;;;;;;;5044752;28;19940;-82
2022/10/11 12:22:14;;;;;;;;;;;;;;;;;;5044993;28;19921;-80
2022/10/11 12:24:40;;;;;;;;;;;;;;;;;;5045576;28;19932;-79
2022/10/11 12:27:06;;;;;;;;;;;;;;;;;;5045764;28;19921;-82
2022/10/11 12:29:33;;;;;;;;;;;;;;;;;;5046133;28;19971;-80
2022/10/11 12:32:02;;;;;;;8.90;1.33;;;;;;;;;;5027647;28;20019;-81
2022/10/11 12:34:44;;;;;;;5.68;1.27;;;;;;;;;;5051949;28;20050;-81
2022/10/11 12:37:17;;;;;;;6.82;1.45;;;;;;;;;;5053827;28;20065;-82
2022/10/11 12:39:49;;;;;;;9.25;1.88;;;;;;;;;;5054625;28;20059;-82
2022/10/11 12:42:21;;;;;;;8.95;1.50;;;;;;;;;;5053902;28;20080;-80
2022/10/11 12:45:06;;;;;;;5.00;1.52;;;;;;;;;;5045104;28;20049;-82
2022/10/11 12:47:46;;;;;;;8.48;2.08;;;;;;;;;;5044221;28;20144;-80
2022/10/11 12:50:25;;;;;;;9.50;1.75;;;;;;;;;;5043107;28;20077;-80
2022/10/11 12:53:07;;;;;;;9.43;1.77;;;;;;;;;;5017980;28;20167;-80
2022/10/11 12:55:38;;;;;;;5.90;1.52;;;;;;;;;;5038835;28;20045;-80
2022/10/11 12:58:06;;;;;;;9.70;1.55;;;;;;;;;;5046651;28;20053;-80
2022/10/11 13:00:42;;;;;;;9.55;1.92;;;;;;;;;;5048684;28;20048;-80
2022/10/11 13:03:25;;;;;;;8.48;1.77;;;;;;;;;;5047817;28;20190;-80
2022/10/11 13:05:57;;;;;;;7.40;1.63;;;;;;;;;;5050750;28;20112;-80
2022/10/11 13:08:27;;;;;;;8.75;1.38;;;;;;;;;;5048219;28;20045;-80
2022/10/11 13:10:55;;;;;;;5.00;1.20;;;;;;;;;;5043534;28;20039;-81
2022/10/11 13:13:25;;;;;;;7.70;1.30;;;;;;;;;;5046633;28;20113;-80
2022/10/11 13:15:52;;;;;;;4.85;1.20;;;;;;;;;;5050972;28;20201;-80
2022/10/11 13:18:21;;;;;;;8.05;1.33;;;;;;;;;;5052537;28;20105;-81
2022/10/11 13:20:47;;;;;;;11.18;1.65;;;;;;;;;;5048634;28;20065;-80
2022/10/11 13:23:25;;;;;;;9.23;1.92;;;;;;;;;;5040937;28;20042;-80
2022/10/11 13:25:52;;;;;;;10.18;1.90;;;;;;;;;;5041091;28;20073;-80
2022/10/11 13:28:19;;;;;;;10.20;1.75;;;;;;;;;;5024250;28;20033;-81
2022/10/11 13:30:47;;;;;;;9.93;1.52;;;;;;;;;;5041863;28;20061;-80
2022/10/11 13:33:18;;;;;;;6.75;1.30;;;;;;;;;;5040788;28;20129;-81
2022/10/11 13:35:45;;;;;;;11.57;1.58;;;;;;;;;;5041374;28;20237;-80
2022/10/11 13:38:19;;;;;;;5.10;1.33;;;;;;;;;;5036828;28;20077;-79
2022/10/11 13:40:46;;;;;;;8.07;1.63;;;;;;;;;;5011813;28;20049;-81
2022/10/11 13:43:19;;;;;;;8.13;1.30;;;;;;;;;;5033459;28;20432;-81
2022/10/11 13:45:45;;;;;;;13.10;1.50;;;;;;;;;;5036303;28;20065;-82
2022/10/11 13:48:13;;;;;;;9.45;1.70;;;;;;;;;;5029480;28;20257;-81
2022/10/11 13:50:40;;;;;;;11.68;1.77;;;;;;;;;;5035154;28;20055;-81
2022/10/11 13:53:09;;;;;;;8.70;1.30;;;;;;;;;;5019911;28;20064;-82
2022/10/11 13:55:35;;;;;;;6.88;1.58;;;;;;;;;;5042853;28;20110;-81
2022/10/11 13:58:07;;;;;;;9.45;1.35;;;;;;;;;;5047516;28;20458;-82
2022/10/11 14:00:38;;;;;;;8.93;1.73;;;;;;;;;;5031982;28;20045;-80
2022/10/11 14:03:04;;;;;;;9.45;1.42;;;;;;;;;;5041524;28;20049;-80
2022/10/11 14:05:38;;;;;;;8.90;1.30;;;;;;;;;;5039261;28;20057;-81
2022/10/11 14:08:17;;;;;;;11.55;1.95;;;;;;;;;;5043493;28;20049;-81
2022/10/11 14:10:47;;;;;;;5.90;1.60;;;;;;;;;;5048891;28;20033;-81
2022/10/11 14:13:28;;;;;;;11.95;1.65;;;;;;;;;;5049995;28;20059;-80
2022/10/11 14:15:58;;;;;;;8.35;1.25;;;;;;;;;;5053208;28;20041;-80
2022/10/11 14:18:32;;;;;;;10.27;1.77;;;;;;;;;;5052830;28;20057;-80
2022/10/11 14:21:16;;;;;;;11.85;1.75;;;;;;;;;;5049934;28;20049;-80
2022/10/11 14:23:42;;;;;;;12.38;1.35;;;;;;;;;;5047783;28;20049;-81
2022/10/11 14:26:11;;;;;;;7.43;1.33;;;;;;;;;;5046650;28;20145;-80
2022/10/11 14:28:44;;;;;;;10.60;1.80;;;;;;;;;;5041718;28;20121;-81
2022/10/11 14:31:10;;;;;;;10.80;1.25;;;;;;;;;;5046790;28;20319;-81
2022/10/11 14:33:37;;;;;;;10.18;1.33;;;;;;;;;;5046908;28;20140;-81
2022/10/11 14:36:03;;;;;;;11.00;1.88;;;;;;;;;;5044872;28;20057;-82
2022/10/11 14:38:30;;;;;;;8.25;1.50;;;;;;;;;;5045087;28;20042;-81
2022/10/11 14:40:56;;;;;;;12.82;1.60;;;;;;;;;;5044793;28;20029;-82
2022/10/11 14:43:23;;;;;;;11.20;1.27;;;;;;;;;;5052469;28;20037;-81
2022/10/11 14:45:49;;;;;;;6.57;1.25;;;;;;;;;;5052251;28;20038;-80
2022/10/11 14:48:16;;;;;;;12.20;1.40;;;;;;;;;;5046690;28;20041;-81
2022/10/11 14:51:02;;;;;;;9.77;1.52;;;;;;;;;;5048395;28;20048;-80
2022/10/11 14:53:28;;;;;;;6.00;1.10;;;;;;;;;;5050721;28;20124;-80